Terminal Aerodrome Forecast
Issued by NWS Fort Wayne, IN

Home | Current Version | Previous Version | Text Only | Print | Product List | Glossary On
Versions: 1 2 3 4 5 6 7 8 9 10 11 12 13 14 15 16 17 18
000
FTUS43 KIWX 180500
TAFFWA
TAF
KFWA 180520Z 1806/1906 VRB02KT P6SM SCT080
     FM181500 03006KT P6SM SCT050 BKN250
     FM190000 09011KT P6SM BKN060=

USA.gov is the U.S. government's official web portal to all federal, state and local government web resources and services.